createdAt,value
2023-04-25T00:01:06.932Z,83.35
2023-04-25T00:03:36.456Z,81.50
2023-04-25T00:06:05.148Z,84.72
2023-04-25T00:08:33.387Z,88.28
2023-04-25T00:11:02.849Z,77.35
2023-04-25T00:13:31.079Z,88.03
2023-04-25T00:15:59.328Z,89.32
2023-04-25T00:18:29.653Z,86.63
2023-04-25T00:20:57.968Z,83.60
2023-04-25T00:23:26.118Z,86.40
2023-04-25T00:25:54.093Z,96.20
2023-04-25T00:28:23.768Z,83.38
2023-04-25T00:30:52.650Z,104.93
2023-04-25T00:33:20.838Z,107.22
2023-04-25T00:35:49.040Z,88.65
2023-04-25T00:38:17.599Z,100.72
2023-04-25T00:40:45.754Z,83.45
2023-04-25T00:43:13.899Z,94.22
2023-04-25T00:45:45.714Z,78.15
2023-04-25T00:48:15.772Z,82.95
2023-04-25T00:50:44.772Z,88.55
2023-04-25T00:53:12.935Z,84.70
2023-04-25T00:55:41.105Z,97.28
2023-04-25T00:58:09.158Z,84.32
2023-04-25T01:00:39.997Z,86.90
2023-04-25T01:03:11.067Z,94.45
2023-04-25T01:05:39.457Z,104.63
2023-04-25T01:08:07.454Z,80.82
2023-04-25T01:10:35.686Z,79.55
2023-04-25T01:13:03.945Z,88.70
2023-04-25T01:15:32.531Z,82.38
2023-04-25T01:18:02.230Z,81.10
2023-04-25T01:20:33.769Z,74.50
2023-04-25T01:23:04.643Z,81.40
2023-04-25T01:25:33.013Z,66.38
2023-04-25T01:28:01.058Z,70.55
2023-04-25T01:30:30.976Z,79.18
2023-04-25T01:32:59.820Z,74.35
2023-04-25T01:35:31.002Z,72.60
2023-04-25T01:37:59.510Z,74.07
2023-04-25T01:40:30.035Z,82.78
2023-04-25T01:42:59.127Z,64.13
2023-04-25T01:45:27.209Z,55.80
2023-04-25T01:47:55.548Z,59.08
2023-04-25T01:50:23.961Z,48.25
2023-04-25T01:52:52.511Z,82.88
2023-04-25T01:55:21.378Z,73.53
2023-04-25T01:58:10.151Z,85.00
2023-04-25T02:01:07.190Z,87.20
2023-04-25T02:03:43.443Z,95.30
2023-04-25T02:06:23.060Z,69.45
2023-04-25T02:08:53.582Z,81.85
2023-04-25T02:11:21.618Z,58.78
2023-04-25T02:14:20.124Z,66.10
2023-04-25T02:16:55.075Z,69.18
2023-04-25T02:19:23.335Z,70.90
2023-04-25T02:21:51.380Z,67.30
2023-04-25T02:24:19.471Z,69.80
2023-04-25T02:26:47.895Z,72.80
2023-04-25T02:29:16.199Z,53.63
2023-04-25T02:31:45.786Z,63.08
2023-04-25T02:34:14.096Z,57.50
2023-04-25T02:36:42.080Z,81.90
2023-04-25T02:39:11.245Z,58.50
2023-04-25T02:41:39.615Z,70.35
2023-04-25T02:44:07.612Z,74.15
2023-04-25T02:46:39.507Z,65.93
2023-04-25T02:49:11.485Z,66.00
2023-04-25T02:51:39.558Z,86.20
2023-04-25T02:54:08.190Z,47.53
2023-04-25T02:56:41.328Z,63.35
2023-04-25T02:59:14.470Z,89.93
2023-04-25T03:01:42.911Z,62.60
2023-04-25T03:04:12.336Z,69.35
2023-04-25T03:06:40.890Z,61.33
2023-04-25T03:09:08.924Z,48.10
2023-04-25T03:11:37.125Z,75.97
2023-04-25T03:14:07.482Z,72.43
2023-04-25T03:16:36.108Z,68.18
2023-04-25T03:19:06.444Z,79.85
2023-04-25T03:21:37.670Z,65.30
2023-04-25T03:24:06.758Z,69.03
2023-04-25T03:26:34.788Z,61.42
2023-04-25T03:29:03.447Z,65.05
2023-04-25T03:31:32.097Z,69.63
2023-04-25T03:34:01.394Z,79.85
2023-04-25T03:36:29.605Z,57.10
2023-04-25T03:38:59.056Z,52.35
2023-04-25T03:41:27.409Z,73.38
2023-04-25T03:44:03.644Z,73.88
2023-04-25T03:46:31.886Z,62.67
2023-04-25T03:49:00.254Z,66.80
2023-04-25T03:51:41.235Z,76.55
2023-04-25T03:54:10.906Z,55.50
2023-04-25T03:56:56.339Z,72.32
2023-04-25T03:59:28.303Z,57.88
2023-04-25T04:01:56.664Z,63.30
2023-04-25T04:04:25.242Z,52.78
2023-04-25T04:06:53.983Z,62.88
2023-04-25T04:09:32.534Z,59.22
2023-04-25T04:12:03.621Z,58.05
2023-04-25T04:14:33.388Z,54.30
2023-04-25T04:17:01.528Z,51.13
2023-04-25T04:19:30.805Z,52.13
2023-04-25T04:22:14.565Z,48.20
2023-04-25T04:24:45.074Z,61.35
2023-04-25T04:27:16.009Z,43.58
2023-04-25T04:29:54.356Z,65.10
2023-04-25T04:32:35.596Z,56.00
2023-04-25T04:35:05.664Z,48.13
2023-04-25T04:37:34.753Z,57.10
2023-04-25T04:40:06.642Z,51.15
2023-04-25T04:42:43.447Z,52.08
2023-04-25T04:45:30.189Z,35.92
2023-04-25T04:48:30.058Z,46.13
2023-04-25T04:51:14.632Z,56.38
2023-04-25T04:54:03.321Z,50.42
2023-04-25T04:56:52.150Z,58.58
2023-04-25T04:59:43.023Z,60.63
2023-04-25T05:02:40.706Z,56.00
2023-04-25T05:05:25.419Z,54.03
2023-04-25T05:08:06.767Z,60.03
2023-04-25T05:10:54.475Z,39.90
2023-04-25T05:13:47.605Z,52.85
2023-04-25T05:16:39.287Z,43.30
2023-04-25T05:19:27.880Z,54.72
2023-04-25T05:22:14.390Z,32.20
2023-04-25T05:24:56.819Z,51.42
2023-04-25T05:27:45.110Z,49.17
2023-04-25T05:30:41.365Z,33.95
2023-04-25T05:33:21.972Z,32.30
2023-04-25T05:35:50.360Z,29.10
2023-04-25T05:38:18.529Z,32.40
2023-04-25T05:41:05.114Z,28.55
2023-04-25T05:43:58.352Z,27.50
2023-04-25T05:46:57.453Z,37.15
2023-04-25T05:49:46.018Z,30.67
2023-04-25T05:52:42.582Z,35.15
2023-04-25T06:01:09.949Z,22.70
2023-04-25T06:03:40.375Z,35.78
2023-04-25T06:06:08.892Z,24.60
2023-04-25T06:08:37.408Z,27.02
2023-04-25T06:11:05.722Z,22.58
2023-04-25T06:13:33.782Z,31.33
2023-04-25T06:16:02.238Z,18.67
2023-04-25T06:18:30.405Z,20.65
2023-04-25T06:20:59.978Z,21.25
2023-04-25T06:23:28.189Z,24.25
2023-04-25T06:26:08.336Z,24.20
2023-04-25T06:28:39.264Z,14.60
2023-04-25T06:31:07.365Z,21.35
2023-04-25T06:33:35.628Z,23.75
2023-04-25T06:36:06.731Z,15.75
2023-04-25T06:38:35.763Z,16.55
2023-04-25T06:41:04.405Z,9.85
2023-04-25T06:43:36.154Z,12.80
2023-04-25T06:46:13.132Z,27.13
2023-04-25T06:48:45.973Z,17.88
2023-04-25T06:51:15.524Z,12.23
2023-04-25T06:53:44.393Z,15.77
2023-04-25T06:59:15.521Z,18.40
2023-04-25T07:01:45.432Z,15.45
2023-04-25T07:04:18.516Z,16.25
2023-04-25T07:07:08.674Z,15.80
2023-04-25T07:09:51.650Z,18.08
2023-04-25T07:12:19.653Z,17.20
2023-04-25T07:14:48.025Z,14.98
2023-04-25T07:17:16.315Z,10.88
2023-04-25T07:19:44.875Z,13.75
2023-04-25T07:22:14.505Z,11.75
2023-04-25T07:24:45.483Z,9.98
2023-04-25T07:27:15.168Z,14.63
2023-04-25T07:29:56.979Z,21.40
2023-04-25T07:32:25.897Z,13.27
2023-04-25T07:34:54.083Z,18.25
2023-04-25T07:37:23.730Z,15.60
2023-04-25T07:43:06.409Z,16.17
2023-04-25T07:45:41.202Z,10.27
2023-04-25T07:48:09.298Z,15.50
2023-04-25T07:50:39.603Z,9.25
2023-04-25T07:53:09.852Z,18.83
2023-04-25T07:55:45.383Z,10.50
2023-04-25T07:58:22.347Z,11.52
2023-04-25T08:00:55.030Z,7.93
2023-04-25T08:03:39.224Z,10.35
2023-04-25T08:06:13.626Z,13.55
2023-04-25T08:08:54.271Z,12.02
2023-04-25T08:11:26.127Z,11.25
2023-04-25T08:13:54.360Z,11.85
2023-04-25T08:16:23.958Z,9.15
2023-04-25T08:18:53.426Z,12.88
2023-04-25T08:21:22.004Z,10.20
2023-04-25T08:23:50.328Z,9.65
2023-04-25T08:26:33.216Z,13.68
2023-04-25T08:29:01.458Z,13.85
2023-04-25T08:31:30.149Z,12.70
2023-04-25T08:34:01.676Z,9.65
2023-04-25T08:36:39.702Z,13.63
2023-04-25T08:39:25.707Z,7.05
2023-04-25T08:42:33.338Z,10.88
2023-04-25T08:45:07.083Z,7.70
2023-04-25T08:47:40.976Z,8.85
2023-04-25T08:50:09.613Z,8.32
2023-04-25T08:52:45.656Z,6.03
2023-04-25T08:55:15.265Z,9.02
2023-04-25T08:57:46.779Z,6.57
2023-04-25T09:00:15.783Z,6.00
2023-04-25T09:02:45.927Z,4.47
2023-04-25T09:05:16.079Z,7.63
2023-04-25T09:07:46.402Z,6.47
2023-04-25T09:10:15.749Z,7.78
2023-04-25T09:12:45.451Z,7.85
2023-04-25T09:15:20.583Z,7.35
2023-04-25T09:18:29.883Z,7.35
2023-04-25T09:21:13.093Z,5.63
2023-04-25T09:23:45.699Z,14.05
2023-04-25T09:26:17.866Z,6.22
2023-04-25T09:28:49.155Z,6.35
2023-04-25T09:31:25.298Z,6.18
2023-04-25T09:34:02.512Z,6.18
2023-04-25T09:36:37.105Z,6.70
2023-04-25T09:39:30.894Z,4.70
2023-04-25T09:42:13.190Z,8.13
2023-04-25T09:44:46.550Z,6.57
2023-04-25T09:47:17.408Z,7.90
2023-04-25T09:49:46.706Z,9.82
2023-04-25T09:52:18.012Z,6.35
2023-04-25T09:55:15.046Z,5.50
2023-04-25T09:57:43.355Z,7.15
2023-04-25T10:00:14.745Z,7.30
2023-04-25T10:02:45.838Z,4.50
2023-04-25T10:05:25.902Z,6.20
2023-04-25T10:07:55.968Z,6.57
2023-04-25T10:10:26.756Z,9.30
2023-04-25T10:12:56.062Z,5.63
2023-04-25T10:15:26.297Z,5.28
2023-04-25T10:17:54.719Z,8.80
2023-04-25T10:20:24.298Z,4.25
2023-04-25T10:22:57.293Z,4.50
2023-04-25T10:25:25.990Z,5.13
2023-04-25T10:27:54.680Z,5.55
2023-04-25T10:30:22.675Z,4.80
2023-04-25T10:32:52.785Z,3.33
2023-04-25T10:35:26.217Z,4.53
2023-04-25T10:38:02.091Z,4.80
2023-04-25T10:40:30.946Z,6.60
2023-04-25T10:43:36.178Z,8.45
2023-04-25T10:48:36.515Z,3.83
2023-04-25T10:51:11.514Z,4.32
2023-04-25T10:53:39.830Z,5.63
2023-04-25T10:56:14.576Z,4.05
2023-04-25T10:58:46.346Z,10.80
2023-04-25T11:01:15.629Z,8.13
2023-04-25T11:03:46.336Z,4.75
2023-04-25T11:06:24.634Z,4.93
2023-04-25T11:08:53.658Z,4.50
2023-04-25T11:11:22.241Z,4.53
2023-04-25T11:13:51.643Z,5.22
2023-04-25T11:16:27.569Z,6.65
2023-04-25T11:18:59.838Z,9.32
2023-04-25T11:21:28.671Z,5.93
2023-04-25T11:23:58.185Z,6.40
2023-04-25T11:26:27.345Z,5.85
2023-04-25T11:29:00.115Z,5.57
2023-04-25T11:31:28.643Z,5.55
2023-04-25T11:33:59.430Z,5.85
2023-04-25T11:36:28.519Z,5.97
2023-04-25T11:38:57.017Z,4.45
2023-04-25T11:41:25.342Z,10.07
2023-04-25T11:43:55.553Z,4.40
2023-04-25T11:46:24.378Z,7.95
2023-04-25T11:48:53.856Z,4.13
2023-04-25T11:51:23.552Z,7.78
2023-04-25T11:53:51.631Z,5.53
2023-04-25T11:56:23.747Z,5.00
2023-04-25T11:58:59.711Z,4.45
2023-04-25T12:01:43.444Z,4.32
2023-04-25T12:04:16.097Z,5.00
2023-04-25T12:06:48.981Z,5.68
2023-04-25T12:09:19.852Z,9.57
2023-04-25T12:11:49.940Z,7.07
2023-04-25T12:14:25.882Z,4.32
2023-04-25T12:16:54.106Z,4.65
2023-04-25T12:19:22.753Z,4.57
2023-04-25T12:24:26.797Z,5.45
2023-04-25T12:26:56.027Z,6.28
2023-04-25T12:29:29.473Z,5.38
2023-04-25T12:32:00.883Z,5.40
2023-04-25T12:34:29.192Z,5.53
2023-04-25T12:36:58.625Z,5.70
2023-04-25T12:39:27.226Z,4.25
2023-04-25T12:41:55.629Z,3.03
2023-04-25T12:44:23.856Z,6.03
2023-04-25T12:46:52.230Z,4.72
2023-04-25T12:49:20.563Z,5.22
2023-04-25T12:51:49.004Z,3.28
2023-04-25T12:54:19.080Z,4.28
2023-04-25T12:56:47.260Z,3.38
2023-04-25T12:59:15.518Z,3.42
2023-04-25T13:01:43.974Z,4.00
2023-04-25T13:04:12.173Z,6.20
2023-04-25T13:06:40.516Z,4.35
2023-04-25T13:09:09.555Z,3.03
2023-04-25T13:11:38.960Z,4.68
2023-04-25T13:14:07.661Z,6.22
2023-04-25T13:16:35.882Z,6.57
2023-04-25T13:19:04.153Z,5.80
2023-04-25T13:21:33.550Z,5.03
2023-04-25T13:24:01.836Z,3.53
2023-04-25T13:26:29.929Z,4.28
2023-04-25T13:28:59.356Z,7.35
2023-04-25T13:31:27.524Z,2.92
2023-04-25T13:33:55.619Z,5.30
2023-04-25T13:36:23.600Z,3.38
2023-04-25T13:38:52.049Z,4.10
2023-04-25T13:41:20.252Z,5.03
2023-04-25T13:43:49.837Z,7.63
2023-04-25T13:48:52.781Z,4.15
2023-04-25T13:51:24.001Z,4.13
2023-04-25T13:53:52.297Z,4.30
2023-04-25T13:56:21.576Z,4.50
2023-04-25T13:58:49.575Z,4.95
2023-04-25T14:01:18.970Z,6.22
2023-04-25T14:03:47.462Z,2.45
2023-04-25T14:06:22.098Z,3.10
2023-04-25T14:08:50.308Z,7.00
2023-04-25T14:11:19.247Z,6.30
2023-04-25T14:13:48.618Z,3.55
2023-04-25T14:16:17.830Z,3.53
2023-04-25T14:18:47.401Z,4.68
2023-04-25T14:21:15.440Z,3.50
2023-04-25T14:23:43.657Z,4.05
2023-04-25T14:28:54.479Z,4.95
2023-04-25T14:31:22.748Z,3.28
2023-04-25T14:33:52.516Z,3.47
2023-04-25T14:36:21.337Z,5.72
2023-04-25T14:38:49.428Z,7.13
2023-04-25T14:41:17.720Z,6.93
2023-04-25T14:43:46.050Z,4.43
2023-04-25T14:46:14.483Z,8.63
2023-04-25T14:48:42.850Z,3.45
2023-04-25T14:51:12.265Z,7.72
2023-04-25T14:53:40.655Z,5.20
2023-04-25T14:56:09.939Z,6.25
2023-04-25T14:58:38.607Z,4.90
2023-04-25T15:01:07.784Z,5.82
2023-04-25T15:03:36.349Z,7.00
2023-04-25T15:06:04.643Z,6.00
2023-04-25T15:08:34.471Z,3.88
2023-04-25T15:11:03.333Z,8.23
2023-04-25T15:13:31.406Z,4.43
2023-04-25T15:15:59.663Z,5.53
2023-04-25T15:18:27.927Z,4.88
2023-04-25T15:20:57.208Z,5.25
2023-04-25T15:23:25.985Z,8.23
2023-04-25T15:25:56.907Z,7.65
2023-04-25T15:28:24.930Z,7.15
2023-04-25T15:30:53.157Z,11.50
2023-04-25T15:33:21.339Z,9.20
2023-04-25T15:35:49.396Z,5.97
2023-04-25T15:38:17.576Z,3.75
2023-04-25T15:40:46.572Z,6.00
2023-04-25T15:43:17.290Z,6.22
2023-04-25T15:45:45.631Z,6.90
2023-04-25T15:48:14.292Z,5.88
2023-04-25T15:50:42.887Z,9.23
2023-04-25T15:53:12.312Z,18.35
2023-04-25T15:55:40.917Z,8.32
2023-04-25T15:58:10.712Z,12.27
2023-04-25T16:00:43.463Z,8.98
2023-04-25T16:03:11.661Z,7.00
2023-04-25T16:05:40.882Z,7.90
2023-04-25T16:08:09.304Z,8.38
2023-04-25T16:10:38.179Z,7.60
2023-04-25T16:13:06.303Z,9.77
2023-04-25T16:15:35.497Z,6.85
2023-04-25T16:18:05.471Z,8.07
2023-04-25T16:20:33.761Z,7.43
2023-04-25T16:23:02.143Z,6.70
2023-04-25T16:25:30.205Z,14.52
2023-04-25T16:27:58.472Z,8.95
2023-04-25T16:30:26.969Z,7.00
2023-04-25T16:32:57.107Z,8.30
2023-04-25T16:35:30.530Z,7.95
2023-04-25T16:37:58.653Z,7.55
2023-04-25T16:40:26.943Z,7.93
2023-04-25T16:42:55.167Z,8.77
2023-04-25T16:45:24.339Z,9.48
2023-04-25T16:47:52.435Z,7.50
2023-04-25T16:50:21.412Z,5.97
2023-04-25T16:52:51.175Z,5.50
2023-04-25T16:55:19.503Z,5.00
2023-04-25T16:57:47.710Z,4.05
2023-04-25T17:00:18.171Z,10.25
2023-04-25T17:02:46.349Z,5.63
2023-04-25T17:05:14.627Z,5.00
2023-04-25T17:07:42.681Z,12.05
2023-04-25T17:10:12.468Z,11.43
2023-04-25T17:12:40.744Z,7.28
2023-04-25T17:15:12.427Z,6.05
2023-04-25T17:17:40.840Z,9.60
2023-04-25T17:20:10.716Z,8.77
2023-04-25T17:22:38.901Z,5.78
2023-04-25T17:25:09.256Z,8.40
2023-04-25T17:27:38.777Z,8.35
2023-04-25T17:30:08.350Z,6.95
2023-04-25T17:32:36.838Z,9.45
2023-04-25T17:35:05.798Z,8.52
2023-04-25T17:37:33.992Z,8.15
2023-04-25T17:40:02.241Z,13.18
2023-04-25T17:42:30.453Z,7.70
2023-04-25T17:45:13.074Z,6.18
2023-04-25T17:47:41.809Z,12.30
2023-04-25T17:50:10.425Z,10.27
2023-04-25T17:52:38.688Z,7.15
2023-04-25T17:55:07.687Z,5.90
2023-04-25T17:57:35.768Z,7.63
2023-04-25T18:00:07.753Z,13.05
2023-04-25T18:02:40.406Z,9.25
2023-04-25T18:05:10.819Z,8.27
2023-04-25T18:07:39.309Z,6.43
2023-04-25T18:10:09.049Z,5.72
2023-04-25T18:12:38.233Z,8.48
2023-04-25T18:15:09.391Z,5.85
2023-04-25T18:17:40.376Z,8.60
2023-04-25T18:20:11.899Z,6.38
2023-04-25T18:22:40.365Z,8.18
2023-04-25T18:25:10.149Z,7.50
2023-04-25T18:27:38.981Z,11.40
2023-04-25T18:30:10.508Z,9.98
2023-04-25T18:32:38.940Z,7.30
2023-04-25T18:35:10.003Z,5.30
2023-04-25T18:37:40.172Z,11.52
2023-04-25T18:40:13.602Z,9.00
2023-04-25T18:42:41.999Z,8.65
2023-04-25T18:45:12.667Z,11.55
2023-04-25T18:47:40.938Z,7.13
2023-04-25T18:50:09.935Z,10.02
2023-04-25T18:52:38.399Z,10.10
2023-04-25T18:55:07.387Z,8.50
2023-04-25T18:57:36.049Z,11.27
2023-04-25T19:00:06.714Z,7.15
2023-04-25T19:02:37.918Z,8.32
2023-04-25T19:05:06.915Z,9.45
2023-04-25T19:07:35.019Z,7.93
2023-04-25T19:10:04.179Z,8.40
2023-04-25T19:12:33.429Z,9.27
2023-04-25T19:15:01.677Z,13.05
2023-04-25T19:17:30.600Z,5.90
2023-04-25T19:20:00.140Z,11.20
2023-04-25T19:22:29.613Z,8.23
2023-04-25T19:25:09.116Z,11.50
2023-04-25T19:27:38.934Z,13.85
2023-04-25T19:30:11.278Z,15.75
2023-04-25T19:32:39.824Z,8.95
2023-04-25T19:35:13.441Z,12.10
2023-04-25T19:37:46.912Z,11.15
2023-04-25T19:40:16.757Z,13.68
2023-04-25T19:42:45.504Z,21.27
2023-04-25T19:45:16.778Z,14.27
2023-04-25T19:47:44.896Z,15.88
2023-04-25T19:50:14.461Z,16.15
2023-04-25T19:52:42.876Z,12.25
2023-04-25T19:55:11.465Z,13.73
2023-04-25T19:57:39.578Z,17.83
2023-04-25T20:00:10.889Z,14.40
2023-04-25T20:02:43.453Z,11.02
2023-04-25T20:05:13.161Z,15.02
2023-04-25T20:07:42.951Z,8.82
2023-04-25T20:10:14.075Z,11.65
2023-04-25T20:15:39.600Z,10.35
2023-04-25T20:18:07.733Z,13.43
2023-04-25T20:20:36.877Z,16.50
2023-04-25T20:23:06.920Z,12.00
2023-04-25T20:25:34.980Z,11.05
2023-04-25T20:28:03.136Z,11.63
2023-04-25T20:30:32.133Z,13.07
2023-04-25T20:33:02.214Z,8.52
2023-04-25T20:35:30.425Z,12.93
2023-04-25T20:37:58.454Z,15.90
2023-04-25T20:40:28.008Z,10.45
2023-04-25T20:42:56.565Z,15.00
2023-04-25T20:45:29.968Z,11.10
2023-04-25T20:47:58.389Z,10.07
2023-04-25T20:50:27.071Z,14.88
2023-04-25T20:52:55.252Z,12.63
2023-04-25T20:55:23.288Z,13.75
2023-04-25T20:57:53.252Z,10.02
2023-04-25T21:00:27.402Z,12.40
2023-04-25T21:05:24.536Z,8.48
2023-04-25T21:07:53.376Z,9.40
2023-04-25T21:10:22.037Z,12.27
2023-04-25T21:12:51.840Z,13.40
2023-04-25T21:15:21.380Z,15.13
2023-04-25T21:17:49.761Z,13.10
2023-04-25T21:20:19.133Z,12.43
2023-04-25T21:22:52.705Z,10.00
2023-04-25T21:25:25.222Z,11.13
2023-04-25T21:27:54.372Z,14.73
2023-04-25T21:30:25.237Z,7.90
2023-04-25T21:32:53.938Z,14.82
2023-04-25T21:35:22.939Z,11.13
2023-04-25T21:37:51.724Z,11.55
2023-04-25T21:40:19.914Z,13.02
2023-04-25T21:42:51.543Z,16.20
2023-04-25T21:45:20.061Z,18.38
2023-04-25T21:47:50.639Z,14.20
2023-04-25T21:50:19.563Z,15.52
2023-04-25T21:52:48.172Z,16.65
2023-04-25T21:55:16.513Z,14.05
2023-04-25T22:00:28.581Z,15.15
2023-04-25T22:03:01.963Z,9.45
2023-04-25T22:05:30.153Z,14.90
2023-04-25T22:07:58.562Z,10.90
2023-04-25T22:10:27.069Z,14.00
2023-04-25T22:12:55.822Z,12.63
2023-04-25T22:15:24.354Z,20.65
2023-04-25T22:18:04.357Z,14.30
2023-04-25T22:20:33.181Z,14.27
2023-04-25T22:23:03.230Z,11.57
2023-04-25T22:25:31.887Z,13.85
2023-04-25T22:30:45.905Z,15.75
2023-04-25T22:33:15.336Z,15.65
2023-04-25T22:35:43.651Z,12.23
2023-04-25T22:38:11.662Z,10.18
2023-04-25T22:40:40.190Z,12.00
2023-04-25T22:43:08.163Z,10.15
2023-04-25T22:45:36.985Z,8.93
2023-04-25T22:48:05.706Z,13.18
2023-04-25T22:50:35.623Z,13.05
2023-04-25T22:53:05.169Z,15.15
2023-04-25T22:55:37.793Z,16.50
2023-04-25T23:01:11.421Z,15.20
2023-04-25T23:03:40.056Z,12.38
2023-04-25T23:06:09.797Z,7.75
2023-04-25T23:08:38.039Z,15.43
2023-04-25T23:11:07.891Z,11.20
2023-04-25T23:13:36.722Z,16.30
2023-04-25T23:16:08.989Z,15.20
2023-04-25T23:18:37.326Z,10.75
2023-04-25T23:21:07.573Z,14.90
2023-04-25T23:23:37.965Z,13.38
2023-04-25T23:26:09.799Z,11.05
2023-04-25T23:28:41.500Z,13.52
2023-04-25T23:31:11.846Z,14.98
2023-04-25T23:33:40.433Z,15.50
2023-04-25T23:36:09.316Z,15.63
2023-04-25T23:38:38.872Z,10.05
2023-04-25T23:41:06.925Z,15.32
2023-04-25T23:43:34.927Z,8.85
2023-04-25T23:46:03.126Z,12.55
2023-04-25T23:48:31.292Z,13.27
2023-04-25T23:51:00.814Z,13.40
2023-04-25T23:53:29.356Z,15.18
2023-04-25T23:55:58.739Z,15.43
2023-04-25T23:58:26.801Z,13.30
